createdAt,value
2023-01-09T00:00:05.725Z,24.07
2023-01-09T00:03:08.589Z,26.40
2023-01-09T00:06:12.623Z,21.23
2023-01-09T00:09:15.312Z,21.75
2023-01-09T00:12:17.944Z,20.15
2023-01-09T00:15:20.687Z,24.50
2023-01-09T00:18:23.309Z,21.67
2023-01-09T00:21:27.433Z,22.25
2023-01-09T00:24:30.116Z,20.77
2023-01-09T00:27:33.647Z,24.92
2023-01-09T00:30:36.375Z,25.37
2023-01-09T00:33:42.383Z,23.67
2023-01-09T00:36:47.488Z,21.58
2023-01-09T00:39:50.553Z,25.38
2023-01-09T00:42:56.551Z,23.95
2023-01-09T00:46:00.246Z,19.33
2023-01-09T00:49:05.203Z,22.10
2023-01-09T00:52:11.857Z,26.60
2023-01-09T00:55:15.711Z,21.27
2023-01-09T00:58:19.116Z,21.20
2023-01-09T01:01:21.999Z,21.60
2023-01-09T01:04:44.381Z,18.42
2023-01-09T01:07:48.699Z,20.65
2023-01-09T01:10:51.403Z,19.65
2023-01-09T01:13:54.257Z,21.63
2023-01-09T01:16:56.911Z,19.73
2023-01-09T01:19:59.595Z,19.58
2023-01-09T01:23:03.717Z,17.98
2023-01-09T01:26:07.976Z,17.80
2023-01-09T01:29:10.623Z,26.17
2023-01-09T01:32:13.631Z,17.87
2023-01-09T01:35:16.295Z,17.38
2023-01-09T01:38:20.434Z,18.50
2023-01-09T01:41:32.255Z,15.48
2023-01-09T01:44:59.445Z,17.08
2023-01-09T01:48:05.821Z,16.57
2023-01-09T01:51:10.078Z,19.83
2023-01-09T01:54:19.906Z,15.77
2023-01-09T01:57:22.903Z,16.88
2023-01-09T02:00:29.533Z,16.02
2023-01-09T02:03:33.352Z,17.57
2023-01-09T02:06:38.644Z,19.40
2023-01-09T02:09:44.677Z,16.60
2023-01-09T02:12:47.373Z,17.85
2023-01-09T02:16:13.401Z,15.18
2023-01-09T02:19:41.259Z,17.83
2023-01-09T02:22:57.942Z,18.75
2023-01-09T02:26:52.999Z,14.70
2023-01-09T02:30:29.556Z,17.45
2023-01-09T02:33:47.474Z,15.45
2023-01-09T02:36:58.575Z,16.00
2023-01-09T02:40:09.531Z,15.82
2023-01-09T02:43:13.483Z,15.52
2023-01-09T02:46:21.342Z,17.63
2023-01-09T02:49:24.133Z,17.58
2023-01-09T02:52:39.234Z,18.23
2023-01-09T02:55:58.594Z,18.40
2023-01-09T02:59:14.293Z,18.65
2023-01-09T03:02:37.419Z,16.83
2023-01-09T03:06:05.520Z,15.18
2023-01-09T03:09:13.722Z,16.97
2023-01-09T03:12:19.486Z,19.75
2023-01-09T03:15:26.938Z,20.77
2023-01-09T03:18:32.706Z,16.27
2023-01-09T03:21:36.446Z,18.23
2023-01-09T03:24:39.038Z,16.73
2023-01-09T03:27:41.600Z,17.33
2023-01-09T03:30:44.333Z,19.50
2023-01-09T03:33:48.425Z,19.02
2023-01-09T03:36:51.086Z,18.30
2023-01-09T03:39:53.767Z,18.57
2023-01-09T03:42:56.517Z,20.50
2023-01-09T03:45:59.679Z,19.17
2023-01-09T03:49:03.782Z,16.30
2023-01-09T03:52:06.561Z,16.40
2023-01-09T03:55:09.531Z,16.30
2023-01-09T03:58:12.187Z,17.70
2023-01-09T04:01:15.088Z,17.63
2023-01-09T04:04:19.234Z,19.05
2023-01-09T04:07:21.898Z,20.58
2023-01-09T04:10:24.597Z,20.67
2023-01-09T04:13:27.296Z,19.10
2023-01-09T04:16:30.083Z,20.58
2023-01-09T04:19:34.134Z,19.60
2023-01-09T04:22:36.796Z,18.92
2023-01-09T04:25:39.508Z,20.47
2023-01-09T04:28:42.161Z,18.52
2023-01-09T04:31:45.059Z,18.63
2023-01-09T04:34:49.170Z,19.23
2023-01-09T04:37:51.922Z,24.17
2023-01-09T04:40:54.659Z,21.10
2023-01-09T04:43:57.256Z,17.88
2023-01-09T04:46:59.875Z,19.50
2023-01-09T04:50:05.250Z,18.50
2023-01-09T04:53:08.041Z,20.92
2023-01-09T04:56:10.726Z,25.40
2023-01-09T04:59:13.639Z,19.70
2023-01-09T05:02:16.493Z,17.70
2023-01-09T05:05:20.574Z,15.82
2023-01-09T05:08:23.247Z,18.50
2023-01-09T05:11:26.410Z,19.67
2023-01-09T05:14:29.224Z,24.05
2023-01-09T05:17:31.865Z,22.52
2023-01-09T05:20:37.249Z,18.00
2023-01-09T05:23:40.177Z,27.23
2023-01-09T05:26:42.872Z,19.87
2023-01-09T05:29:45.666Z,19.02
2023-01-09T05:32:48.334Z,20.88
2023-01-09T05:35:54.444Z,20.02
2023-01-09T05:39:02.544Z,18.63
2023-01-09T05:42:05.339Z,20.30
2023-01-09T05:45:09.335Z,23.75
2023-01-09T05:48:12.053Z,20.70
2023-01-09T05:51:17.171Z,20.63
2023-01-09T05:54:19.935Z,21.98
2023-01-09T05:57:22.657Z,24.23
2023-01-09T06:00:25.544Z,27.55
2023-01-09T06:03:28.220Z,30.23
2023-01-09T06:06:32.264Z,21.92
2023-01-09T06:09:34.999Z,21.30
2023-01-09T06:12:37.796Z,24.63
2023-01-09T06:15:40.710Z,26.27
2023-01-09T06:18:43.430Z,27.38
2023-01-09T06:21:47.777Z,20.17
2023-01-09T06:24:50.437Z,26.25
2023-01-09T06:27:53.259Z,20.97
2023-01-09T06:30:56.038Z,21.92
2023-01-09T06:33:58.877Z,29.67
2023-01-09T06:37:02.920Z,28.60
2023-01-09T06:40:06.910Z,24.17
2023-01-09T06:43:09.660Z,24.43
2023-01-09T06:46:12.407Z,26.67
2023-01-09T06:49:15.220Z,26.35
2023-01-09T06:52:19.945Z,28.52
2023-01-09T06:55:22.773Z,25.98
2023-01-09T06:58:25.528Z,29.23
2023-01-09T07:01:28.825Z,18.92
2023-01-09T07:04:31.768Z,27.85
2023-01-09T07:07:35.838Z,27.35
2023-01-09T07:10:38.590Z,26.08
2023-01-09T07:13:41.335Z,28.13
2023-01-09T07:16:44.088Z,25.52
2023-01-09T07:19:46.903Z,32.92
2023-01-09T07:22:52.036Z,23.15
2023-01-09T07:25:54.767Z,24.65
2023-01-09T07:28:59.533Z,30.23
2023-01-09T07:32:02.431Z,21.10
2023-01-09T07:35:05.938Z,24.25
2023-01-09T07:38:10.108Z,26.00
2023-01-09T07:41:12.738Z,27.95
2023-01-09T07:44:15.661Z,26.30
2023-01-09T07:47:19.017Z,30.15
2023-01-09T07:50:21.947Z,24.70
2023-01-09T07:53:27.869Z,22.95
2023-01-09T07:56:30.600Z,24.20
2023-01-09T07:59:33.411Z,21.37
2023-01-09T08:02:36.422Z,22.80
2023-01-09T08:05:39.223Z,23.90
2023-01-09T08:08:43.470Z,20.05
2023-01-09T08:11:46.346Z,24.88
2023-01-09T08:14:49.306Z,21.73
2023-01-09T08:17:52.229Z,30.52
2023-01-09T08:20:57.766Z,23.48
2023-01-09T08:24:02.788Z,22.10
2023-01-09T08:27:06.149Z,23.23
2023-01-09T08:30:11.031Z,22.63
2023-01-09T08:33:13.938Z,20.08
2023-01-09T08:36:17.496Z,24.63
2023-01-09T08:39:21.627Z,21.48
2023-01-09T08:42:42.837Z,23.75
2023-01-09T08:46:04.206Z,20.63
2023-01-09T08:49:09.620Z,24.05
2023-01-09T08:52:13.729Z,21.70
2023-01-09T08:55:17.854Z,21.67
2023-01-09T08:58:20.571Z,22.98
2023-01-09T09:01:23.240Z,24.30
2023-01-09T09:04:26.084Z,24.33
2023-01-09T09:07:28.863Z,25.50
2023-01-09T09:10:33.426Z,24.42
2023-01-09T09:13:36.943Z,31.35
2023-01-09T09:16:39.597Z,27.10
2023-01-09T09:19:42.818Z,24.80
2023-01-09T09:22:46.519Z,27.25
2023-01-09T09:25:53.424Z,21.70
2023-01-09T09:28:56.409Z,22.52
2023-01-09T09:32:01.063Z,23.50
2023-01-09T09:35:04.658Z,22.92
2023-01-09T09:38:07.823Z,25.85
2023-01-09T09:41:45.194Z,23.13
2023-01-09T09:45:06.493Z,23.67
2023-01-09T09:48:22.886Z,22.57
2023-01-09T09:51:46.922Z,19.08
2023-01-09T09:54:52.261Z,24.20
2023-01-09T09:57:58.618Z,23.10
2023-01-09T10:01:02.636Z,20.75
2023-01-09T10:04:11.441Z,20.63
2023-01-09T10:07:22.598Z,28.75
2023-01-09T10:10:31.712Z,26.55
2023-01-09T10:13:54.349Z,24.30
2023-01-09T10:17:15.396Z,24.65
2023-01-09T10:20:50.479Z,24.50
2023-01-09T10:24:22.522Z,25.70
2023-01-09T10:27:43.613Z,29.15
2023-01-09T10:30:52.723Z,28.17
2023-01-09T10:34:07.874Z,24.85
2023-01-09T10:37:13.734Z,23.10
2023-01-09T10:40:23.025Z,29.38
2023-01-09T10:43:35.048Z,26.70
2023-01-09T10:46:46.919Z,30.45
2023-01-09T10:49:51.674Z,26.95
2023-01-09T10:52:56.691Z,26.03
2023-01-09T10:56:05.766Z,26.95
2023-01-09T10:59:11.878Z,27.33
2023-01-09T11:02:27.403Z,28.10
2023-01-09T11:05:33.069Z,25.98
2023-01-09T11:08:46.777Z,24.37
2023-01-09T11:11:52.941Z,27.45
2023-01-09T11:14:56.723Z,27.77
2023-01-09T11:18:24.463Z,24.38
2023-01-09T11:21:35.734Z,24.15
2023-01-09T11:24:42.181Z,19.30
2023-01-09T11:28:03.300Z,28.77
2023-01-09T11:31:06.045Z,25.48
2023-01-09T11:34:16.582Z,26.42
2023-01-09T11:37:26.041Z,28.33
2023-01-09T11:40:32.029Z,23.37
2023-01-09T11:43:38.233Z,26.20
2023-01-09T11:46:44.039Z,27.60
2023-01-09T11:49:51.282Z,27.02
2023-01-09T11:53:13.337Z,28.85
2023-01-09T11:56:17.238Z,22.93
2023-01-09T11:59:22.048Z,27.58
2023-01-09T12:02:44.754Z,28.30
2023-01-09T12:05:57.179Z,30.92
2023-01-09T12:09:02.918Z,33.80
2023-01-09T12:12:18.496Z,26.87
2023-01-09T12:15:33.148Z,26.15
2023-01-09T12:18:57.264Z,26.30
2023-01-09T12:22:11.585Z,24.17
2023-01-09T12:25:25.858Z,28.13
2023-01-09T12:28:48.040Z,28.37
2023-01-09T12:32:18.354Z,31.45
2023-01-09T12:35:32.459Z,26.45
2023-01-09T12:38:49.104Z,33.25
2023-01-09T12:42:10.296Z,31.20
2023-01-09T12:45:34.014Z,26.23
2023-01-09T12:49:08.238Z,26.00
2023-01-09T12:52:17.433Z,27.23
2023-01-09T12:55:25.522Z,28.05
2023-01-09T12:58:44.803Z,31.60
2023-01-09T13:01:50.913Z,33.27
2023-01-09T13:04:59.725Z,34.40
2023-01-09T13:08:15.349Z,27.30
2023-01-09T13:11:27.259Z,31.75
2023-01-09T13:14:44.510Z,21.27
2023-01-09T13:17:53.212Z,27.20
2023-01-09T13:20:56.798Z,26.80
2023-01-09T13:24:07.941Z,32.05
2023-01-09T13:27:17.867Z,30.45
2023-01-09T13:30:37.115Z,36.22
2023-01-09T13:33:44.824Z,27.77
2023-01-09T13:36:50.144Z,29.70
2023-01-09T13:39:58.541Z,25.67
2023-01-09T13:43:04.562Z,23.73
2023-01-09T13:46:07.486Z,24.67
2023-01-09T13:49:39.910Z,30.17
2023-01-09T13:52:43.433Z,26.77
2023-01-09T13:56:05.488Z,25.50
2023-01-09T13:59:27.444Z,30.40
2023-01-09T14:02:56.130Z,24.35
2023-01-09T14:06:24.380Z,26.73
2023-01-09T14:09:27.285Z,26.65
2023-01-09T14:12:38.000Z,26.02
2023-01-09T14:15:46.538Z,24.52
2023-01-09T14:18:52.752Z,24.85
2023-01-09T14:21:58.171Z,21.00
2023-01-09T14:25:09.166Z,24.38
2023-01-09T14:28:23.193Z,30.98
2023-01-09T14:31:31.856Z,30.33
2023-01-09T14:34:37.409Z,30.08
2023-01-09T14:37:41.144Z,25.50
2023-01-09T14:40:52.503Z,21.83
2023-01-09T14:44:00.940Z,26.02
2023-01-09T14:47:11.743Z,25.75
2023-01-09T14:50:18.869Z,28.73
2023-01-09T14:53:26.203Z,20.07
2023-01-09T14:56:31.105Z,19.85
2023-01-09T14:59:34.159Z,25.20
2023-01-09T15:02:39.685Z,28.23
2023-01-09T15:05:45.767Z,29.17
2023-01-09T15:08:56.475Z,22.27
2023-01-09T15:12:04.545Z,26.10
2023-01-09T15:15:13.371Z,21.88
2023-01-09T15:18:23.293Z,30.65
2023-01-09T15:21:27.387Z,26.98
2023-01-09T15:24:32.495Z,22.90
2023-01-09T15:27:35.157Z,26.27
2023-01-09T15:30:37.912Z,26.58
2023-01-09T15:33:44.596Z,29.67
2023-01-09T15:36:49.336Z,25.55
2023-01-09T15:39:52.624Z,25.53
2023-01-09T15:42:57.453Z,23.42
2023-01-09T15:46:01.091Z,27.95
2023-01-09T15:49:05.332Z,29.13
2023-01-09T15:52:13.314Z,26.98
2023-01-09T15:55:25.587Z,29.97
2023-01-09T15:58:32.347Z,31.25
2023-01-09T16:01:37.518Z,31.92
2023-01-09T16:04:42.033Z,27.95
2023-01-09T16:07:45.848Z,35.70
2023-01-09T16:10:53.827Z,42.33
2023-01-09T16:14:01.665Z,30.80
2023-01-09T16:17:07.497Z,32.13
2023-01-09T16:20:24.628Z,40.42
2023-01-09T16:23:32.016Z,30.30
2023-01-09T16:26:35.287Z,34.70
2023-01-09T16:29:45.178Z,30.98
2023-01-09T16:32:51.375Z,25.33
2023-01-09T16:35:58.487Z,33.72
2023-01-09T16:39:03.075Z,31.13
2023-01-09T16:42:27.317Z,26.33
2023-01-09T16:45:33.517Z,26.90
2023-01-09T16:48:38.435Z,24.60
2023-01-09T16:51:43.714Z,26.48
2023-01-09T16:54:47.431Z,26.30
2023-01-09T16:57:50.219Z,21.53
2023-01-09T17:00:53.367Z,25.23
2023-01-09T17:03:56.058Z,23.10
2023-01-09T17:07:01.717Z,26.38
2023-01-09T17:10:05.918Z,26.80
2023-01-09T17:13:08.654Z,28.83
2023-01-09T17:16:11.690Z,24.13
2023-01-09T17:19:18.815Z,24.60
2023-01-09T17:22:22.984Z,20.15
2023-01-09T17:25:44.429Z,22.08
2023-01-09T17:28:50.460Z,21.53
2023-01-09T17:31:53.692Z,25.83
2023-01-09T17:34:56.577Z,26.40
2023-01-09T17:38:00.636Z,24.27
2023-01-09T17:41:03.323Z,23.35
2023-01-09T17:44:06.139Z,19.57
2023-01-09T17:47:14.668Z,23.02
2023-01-09T17:50:20.103Z,19.63
2023-01-09T17:53:25.445Z,22.45
2023-01-09T17:56:32.526Z,23.75
2023-01-09T17:59:35.913Z,20.97
2023-01-09T18:02:38.900Z,17.77
2023-01-09T18:05:42.953Z,25.15
2023-01-09T18:08:47.440Z,52.97
2023-01-09T18:11:50.193Z,28.35
2023-01-09T18:14:54.081Z,24.50
2023-01-09T18:17:57.016Z,24.92
2023-01-09T18:20:59.701Z,27.27
2023-01-09T18:24:04.626Z,28.20
2023-01-09T18:27:07.561Z,26.05
2023-01-09T18:30:11.816Z,27.03
2023-01-09T18:33:15.767Z,23.48
2023-01-09T18:36:19.954Z,28.52
2023-01-09T18:39:24.253Z,28.10
2023-01-09T18:42:27.110Z,27.00
2023-01-09T18:45:31.806Z,24.70
2023-01-09T18:48:34.645Z,27.38
2023-01-09T18:51:37.509Z,28.38
2023-01-09T18:54:42.823Z,30.40
2023-01-09T18:57:45.540Z,25.23
2023-01-09T19:00:50.240Z,28.60
2023-01-09T19:03:53.339Z,27.55
2023-01-09T19:06:57.172Z,27.50
2023-01-09T19:10:01.669Z,27.27
2023-01-09T19:13:04.438Z,27.02
2023-01-09T19:16:08.703Z,26.00
2023-01-09T19:19:11.578Z,26.48
2023-01-09T19:22:15.180Z,22.65
2023-01-09T19:25:19.237Z,24.25
2023-01-09T19:28:22.414Z,23.50
2023-01-09T19:31:28.438Z,27.03
2023-01-09T19:34:31.860Z,22.63
2023-01-09T19:37:35.289Z,23.75
2023-01-09T19:40:39.304Z,23.08
2023-01-09T19:43:42.203Z,25.05
2023-01-09T19:46:44.966Z,21.93
2023-01-09T19:49:47.612Z,21.33
2023-01-09T19:52:51.015Z,23.63
2023-01-09T19:55:55.090Z,28.42
2023-01-09T19:59:00.160Z,20.85
2023-01-09T20:02:03.549Z,22.90
2023-01-09T20:05:07.587Z,26.30
2023-01-09T20:08:11.665Z,23.35
2023-01-09T20:11:16.523Z,22.25
2023-01-09T20:14:19.835Z,22.23
2023-01-09T20:17:22.463Z,23.57
2023-01-09T20:20:25.508Z,27.45
2023-01-09T20:23:28.918Z,22.70
2023-01-09T20:26:33.965Z,20.83
2023-01-09T20:29:36.955Z,23.00
2023-01-09T20:32:40.429Z,24.70
2023-01-09T20:35:43.276Z,21.05
2023-01-09T20:38:45.940Z,19.05
2023-01-09T20:41:50.167Z,21.98
2023-01-09T20:44:53.006Z,21.70
2023-01-09T20:47:55.682Z,20.70
2023-01-09T20:51:04.147Z,18.50
2023-01-09T20:54:07.201Z,20.70
2023-01-09T20:57:11.164Z,24.33
2023-01-09T21:00:15.067Z,22.75
2023-01-09T21:03:17.731Z,24.07
2023-01-09T21:06:22.451Z,26.23
2023-01-09T21:09:26.130Z,20.23
2023-01-09T21:12:39.041Z,19.20
2023-01-09T21:15:41.751Z,24.48
2023-01-09T21:18:44.488Z,26.23
2023-01-09T21:21:47.143Z,23.60
2023-01-09T21:24:50.352Z,19.02
2023-01-09T21:27:54.441Z,21.05
2023-01-09T21:30:57.155Z,22.65
2023-01-09T21:34:00.393Z,20.73
2023-01-09T21:37:03.112Z,21.05
2023-01-09T21:40:13.153Z,21.00
2023-01-09T21:43:43.818Z,18.98
2023-01-09T21:46:52.342Z,22.23
2023-01-09T21:49:55.030Z,19.57
2023-01-09T21:52:57.775Z,22.27
2023-01-09T21:56:02.910Z,19.05
2023-01-09T21:59:07.275Z,15.85
2023-01-09T22:02:12.005Z,18.83
2023-01-09T22:05:14.779Z,17.13
2023-01-09T22:08:17.455Z,17.00
2023-01-09T22:11:20.108Z,17.52
2023-01-09T22:14:24.151Z,16.65
2023-01-09T22:17:28.779Z,16.13
2023-01-09T22:20:31.474Z,15.90
2023-01-09T22:23:34.112Z,17.20
2023-01-09T22:26:36.963Z,17.95
2023-01-09T22:29:41.005Z,16.30
2023-01-09T22:32:43.853Z,17.70
2023-01-09T22:35:46.543Z,17.90
2023-01-09T22:38:49.248Z,18.33
2023-01-09T22:41:54.451Z,18.38
2023-01-09T22:44:58.603Z,18.98
2023-01-09T22:48:01.338Z,19.15
2023-01-09T22:51:05.736Z,18.00
2023-01-09T22:54:08.643Z,20.58
2023-01-09T22:57:11.431Z,15.38
2023-01-09T23:00:16.726Z,16.20
2023-01-09T23:03:20.349Z,20.38
2023-01-09T23:06:25.222Z,18.50
2023-01-09T23:09:28.062Z,17.05
2023-01-09T23:12:30.778Z,19.50
2023-01-09T23:15:34.917Z,19.10
2023-01-09T23:18:37.606Z,17.58
2023-01-09T23:21:40.381Z,17.47
2023-01-09T23:24:43.117Z,16.75
2023-01-09T23:27:46.078Z,16.35
2023-01-09T23:30:50.103Z,17.77
2023-01-09T23:33:52.802Z,15.43
2023-01-09T23:36:57.524Z,17.87
2023-01-09T23:40:00.331Z,19.73
2023-01-09T23:43:09.288Z,17.98
2023-01-09T23:46:13.400Z,18.25
2023-01-09T23:49:16.395Z,20.40
2023-01-09T23:52:19.113Z,18.73
2023-01-09T23:55:21.848Z,17.23
2023-01-09T23:58:24.922Z,17.88
